createdAt,value
2022-08-10T00:00:55.795Z,0.57
2022-08-10T00:03:25.152Z,0.40
2022-08-10T00:05:54.978Z,0.53
2022-08-10T00:08:24.983Z,0.60
2022-08-10T00:10:53.556Z,0.60
2022-08-10T00:13:22.113Z,0.60
2022-08-10T00:15:53.448Z,0.60
2022-08-10T00:18:34.905Z,0.70
2022-08-10T00:21:06.209Z,0.40
2022-08-10T00:23:34.482Z,0.60
2022-08-10T00:26:02.755Z,0.50
2022-08-10T00:28:30.914Z,0.50
2022-08-10T00:30:59.007Z,0.60
2022-08-10T00:33:26.757Z,0.57
2022-08-10T00:35:54.501Z,0.57
2022-08-10T00:38:23.892Z,0.60
2022-08-10T00:40:51.761Z,0.70
2022-08-10T00:43:23.359Z,0.50
2022-08-10T00:45:58.876Z,0.50
2022-08-10T00:48:28.913Z,0.63
2022-08-10T00:50:57.060Z,0.40
2022-08-10T00:53:26.397Z,0.60
2022-08-10T00:57:14.614Z,0.60
2022-08-10T00:58:42.572Z,0.57
2022-08-10T01:02:07.099Z,0.60
2022-08-10T01:04:40.105Z,0.60
2022-08-10T01:06:54.656Z,0.67
2022-08-10T01:09:33.173Z,0.80
2022-08-10T01:12:40.761Z,0.60
2022-08-10T01:15:00.100Z,0.60
2022-08-10T01:17:50.559Z,0.60
2022-08-10T01:20:30.046Z,0.57
2022-08-10T01:23:44.111Z,0.70
2022-08-10T01:26:30.611Z,0.60
2022-08-10T01:29:17.299Z,0.63
2022-08-10T01:31:52.243Z,0.80
2022-08-10T01:34:23.242Z,0.70
2022-08-10T01:37:04.728Z,0.87
2022-08-10T01:39:38.906Z,0.70
2022-08-10T01:42:08.252Z,0.60
2022-08-10T01:44:40.521Z,0.80
2022-08-10T01:47:32.407Z,0.67
2022-08-10T01:50:03.951Z,0.70
2022-08-10T01:52:33.247Z,0.70
2022-08-10T01:55:01.113Z,0.70
2022-08-10T01:57:31.616Z,0.90
2022-08-10T02:00:02.424Z,0.80
2022-08-10T02:02:34.871Z,0.73
2022-08-10T02:05:05.118Z,1.10
2022-08-10T02:07:34.461Z,0.70
2022-08-10T02:10:10.563Z,0.80
2022-08-10T02:12:40.624Z,0.77
2022-08-10T02:15:12.351Z,0.63
2022-08-10T02:17:57.749Z,0.90
2022-08-10T02:20:35.041Z,0.80
2022-08-10T02:23:12.677Z,0.80
2022-08-10T02:25:43.838Z,0.73
2022-08-10T02:28:27.200Z,0.77
2022-08-10T02:31:01.497Z,0.67
2022-08-10T02:33:31.467Z,0.77
2022-08-10T02:36:01.655Z,0.90
2022-08-10T02:38:58.158Z,0.83
2022-08-10T02:45:12.479Z,0.80
2022-08-10T02:45:23.641Z,0.80
2022-08-10T02:47:22.536Z,1.10
2022-08-10T02:50:00.123Z,0.90
2022-08-10T02:52:36.474Z,1.00
2022-08-10T02:55:18.171Z,0.90
2022-08-10T02:58:12.937Z,1.10
2022-08-10T03:00:44.436Z,1.00
2022-08-10T03:03:17.732Z,0.90
2022-08-10T03:05:50.293Z,1.00
2022-08-10T03:08:20.514Z,1.00
2022-08-10T03:10:50.508Z,1.07
2022-08-10T03:13:20.342Z,0.97
2022-08-10T03:15:50.122Z,1.10
2022-08-10T03:18:19.771Z,1.03
2022-08-10T03:20:50.169Z,0.80
2022-08-10T03:23:20.288Z,1.27
2022-08-10T03:25:53.342Z,1.00
2022-08-10T03:28:23.639Z,1.20
2022-08-10T03:30:52.175Z,1.23
2022-08-10T03:33:21.643Z,1.10
2022-08-10T03:36:43.070Z,1.03
2022-08-10T03:38:40.484Z,1.10
2022-08-10T03:41:15.957Z,1.20
2022-08-10T03:43:47.919Z,1.10
2022-08-10T03:46:19.445Z,1.03
2022-08-10T03:48:50.998Z,1.10
2022-08-10T03:51:21.434Z,1.17
2022-08-10T03:54:05.556Z,1.40
2022-08-10T03:56:39.014Z,1.30
2022-08-10T03:59:08.944Z,1.30
2022-08-10T04:02:44.211Z,0.90
2022-08-10T04:04:26.061Z,1.07
2022-08-10T04:06:57.373Z,1.20
2022-08-10T04:09:43.076Z,1.13
2022-08-10T04:12:15.600Z,1.20
2022-08-10T04:14:51.499Z,1.30
2022-08-10T04:17:59.446Z,1.10
2022-08-10T04:20:12.946Z,1.30
2022-08-10T04:22:44.802Z,1.20
2022-08-10T04:25:15.939Z,1.20
2022-08-10T04:27:44.254Z,1.23
2022-08-10T04:30:12.689Z,1.40
2022-08-10T04:32:42.324Z,1.20
2022-08-10T04:35:11.791Z,1.17
2022-08-10T04:37:47.190Z,1.40
2022-08-10T04:40:29.870Z,1.30
2022-08-10T04:43:10.906Z,1.50
2022-08-10T04:45:50.074Z,1.33
2022-08-10T04:48:40.278Z,1.40
2022-08-10T04:51:17.215Z,1.40
2022-08-10T04:54:04.943Z,1.40
2022-08-10T04:56:37.996Z,1.63
2022-08-10T04:59:06.788Z,1.60
2022-08-10T05:02:22.170Z,1.47
2022-08-10T05:04:34.701Z,1.60
2022-08-10T05:07:10.197Z,1.70
2022-08-10T05:10:01.735Z,1.57
2022-08-10T05:12:29.514Z,1.90
2022-08-10T05:14:57.710Z,1.33
2022-08-10T05:17:25.558Z,1.60
2022-08-10T05:20:04.499Z,1.80
2022-08-10T05:22:39.376Z,1.67
2022-08-10T05:25:09.778Z,1.50
2022-08-10T05:27:39.424Z,1.90
2022-08-10T05:30:08.579Z,2.00
2022-08-10T05:32:57.472Z,1.60
2022-08-10T05:35:25.790Z,1.97
2022-08-10T05:38:11.817Z,2.10
2022-08-10T05:40:46.758Z,1.97
2022-08-10T05:43:18.863Z,2.00
2022-08-10T05:46:18.841Z,2.57
2022-08-10T05:48:55.304Z,1.90
2022-08-10T05:51:23.641Z,2.17
2022-08-10T05:54:04.211Z,2.20
2022-08-10T05:56:56.380Z,2.20
2022-08-10T06:00:34.975Z,1.90
2022-08-10T06:02:31.749Z,2.30
2022-08-10T06:05:06.782Z,2.27
2022-08-10T06:07:38.298Z,2.40
2022-08-10T06:10:10.320Z,2.23
2022-08-10T06:12:54.239Z,2.03
2022-08-10T06:15:50.692Z,2.20
2022-08-10T06:18:15.507Z,2.30
2022-08-10T06:20:43.635Z,2.47
2022-08-10T06:23:13.346Z,2.40
2022-08-10T06:26:11.670Z,2.30
2022-08-10T06:28:32.562Z,2.30
2022-08-10T06:31:03.786Z,2.43
2022-08-10T06:33:34.512Z,2.40
2022-08-10T06:36:04.425Z,2.23
2022-08-10T06:38:34.802Z,2.20
2022-08-10T06:41:09.019Z,2.37
2022-08-10T06:43:41.311Z,1.87
2022-08-10T06:46:16.610Z,2.33
2022-08-10T06:48:50.735Z,2.03
2022-08-10T06:51:23.930Z,2.20
2022-08-10T06:53:55.465Z,2.07
2022-08-10T06:56:37.910Z,2.20
2022-08-10T06:59:21.141Z,2.43
2022-08-10T07:01:58.528Z,2.17
2022-08-10T07:04:32.921Z,2.27
2022-08-10T07:07:04.573Z,2.47
2022-08-10T07:09:34.484Z,2.27
2022-08-10T07:12:08.311Z,2.33
2022-08-10T07:14:39.701Z,2.07
2022-08-10T07:17:16.136Z,1.93
2022-08-10T07:19:50.305Z,2.37
2022-08-10T07:23:54.207Z,2.17
2022-08-10T07:25:10.824Z,2.17
2022-08-10T07:27:59.268Z,2.57
2022-08-10T07:30:29.730Z,2.50
2022-08-10T07:33:01.487Z,2.20
2022-08-10T07:35:36.805Z,1.87
2022-08-10T07:38:14.563Z,1.90
2022-08-10T07:40:44.997Z,2.40
2022-08-10T07:43:15.126Z,2.30
2022-08-10T07:45:43.021Z,2.10
2022-08-10T07:48:16.229Z,2.20
2022-08-10T07:50:46.331Z,2.23
2022-08-10T07:53:18.724Z,2.10
2022-08-10T07:56:03.751Z,2.40
2022-08-10T07:58:46.147Z,2.10
2022-08-10T08:01:21.147Z,1.90
2022-08-10T08:04:05.769Z,2.10
2022-08-10T08:06:40.626Z,2.20
2022-08-10T08:09:08.434Z,2.17
2022-08-10T08:11:37.815Z,1.80
2022-08-10T08:14:08.697Z,2.20
2022-08-10T08:16:38.860Z,2.77
2022-08-10T08:19:27.736Z,2.67
2022-08-10T08:24:05.631Z,3.10
2022-08-10T08:24:45.301Z,3.00
2022-08-10T08:27:16.841Z,2.20
2022-08-10T08:29:47.179Z,1.93
2022-08-10T08:32:19.162Z,2.67
2022-08-10T08:34:50.407Z,2.70
2022-08-10T08:38:29.452Z,2.67
2022-08-10T08:40:13.509Z,2.60
2022-08-10T08:42:57.842Z,2.40
2022-08-10T08:45:31.585Z,2.23
2022-08-10T08:48:43.823Z,2.60
2022-08-10T08:52:09.984Z,2.67
2022-08-10T08:54:32.914Z,2.00
2022-08-10T08:57:06.928Z,1.90
2022-08-10T08:59:52.988Z,1.40
2022-08-10T09:02:40.549Z,2.00
2022-08-10T09:05:26.490Z,1.83
2022-08-10T09:08:23.977Z,1.50
2022-08-10T09:10:59.612Z,1.70
2022-08-10T09:13:33.732Z,1.40
2022-08-10T09:16:22.066Z,1.40
2022-08-10T09:18:54.348Z,1.90
2022-08-10T09:21:29.848Z,1.53
2022-08-10T09:24:06.499Z,1.37
2022-08-10T09:26:46.598Z,1.40
2022-08-10T09:29:18.438Z,1.30
2022-08-10T09:33:06.179Z,1.30
2022-08-10T09:36:25.564Z,1.10
2022-08-10T09:38:03.276Z,1.50
2022-08-10T09:41:00.978Z,1.30
2022-08-10T09:43:44.665Z,1.20
2022-08-10T09:46:27.276Z,1.40
2022-08-10T09:49:06.315Z,1.17
2022-08-10T09:51:46.637Z,1.30
2022-08-10T09:54:29.455Z,1.40
2022-08-10T09:57:43.816Z,1.50
2022-08-10T10:00:04.465Z,1.40
2022-08-10T10:02:39.186Z,1.47
2022-08-10T10:05:20.071Z,1.30
2022-08-10T10:07:58.344Z,1.70
2022-08-10T10:10:33.940Z,1.10
2022-08-10T10:13:08.725Z,1.47
2022-08-10T10:15:43.068Z,1.40
2022-08-10T10:18:21.066Z,1.43
2022-08-10T10:21:01.263Z,1.43
2022-08-10T10:23:39.575Z,1.10
2022-08-10T10:26:19.043Z,1.30
2022-08-10T10:29:24.709Z,1.10
2022-08-10T10:31:55.821Z,1.10
2022-08-10T10:34:36.529Z,1.20
2022-08-10T10:37:08.301Z,1.23
2022-08-10T10:39:41.316Z,1.20
2022-08-10T10:42:42.213Z,1.00
2022-08-10T10:45:17.443Z,1.08
2022-08-10T10:47:56.690Z,0.85
2022-08-10T10:50:32.401Z,1.00
2022-08-10T10:53:09.570Z,0.98
2022-08-10T10:56:13.592Z,1.08
2022-08-10T10:58:42.230Z,1.00
2022-08-10T11:01:16.038Z,1.00
2022-08-10T11:04:04.392Z,0.90
2022-08-10T11:06:45.471Z,1.20
2022-08-10T11:10:08.663Z,1.35
2022-08-10T11:12:19.628Z,0.90
2022-08-10T11:14:59.084Z,1.10
2022-08-10T11:17:34.572Z,0.90
2022-08-10T11:20:11.156Z,1.05
2022-08-10T11:22:47.240Z,0.93
2022-08-10T11:25:22.033Z,0.90
2022-08-10T11:27:55.607Z,1.00
2022-08-10T11:30:30.308Z,1.10
2022-08-10T11:33:12.111Z,1.15
2022-08-10T11:35:45.864Z,1.00
2022-08-10T11:38:30.391Z,1.00
2022-08-10T11:41:14.650Z,1.20
2022-08-10T11:44:06.194Z,1.10
2022-08-10T11:46:37.650Z,1.00
2022-08-10T11:49:11.179Z,1.02
2022-08-10T11:51:47.046Z,1.20
2022-08-10T11:54:25.294Z,1.27
2022-08-10T11:57:01.351Z,1.30
2022-08-10T11:59:51.251Z,1.20
2022-08-10T12:02:32.684Z,1.00
2022-08-10T12:05:08.368Z,1.10
2022-08-10T12:10:01.949Z,0.95
2022-08-10T12:10:30.969Z,1.20
2022-08-10T12:13:06.521Z,1.15
2022-08-10T12:15:41.884Z,1.23
2022-08-10T12:18:17.449Z,1.10
2022-08-10T12:20:51.861Z,1.10
2022-08-10T12:23:26.816Z,1.20
2022-08-10T12:26:07.475Z,0.98
2022-08-10T12:28:49.871Z,1.40
2022-08-10T12:31:22.882Z,1.13
2022-08-10T12:34:01.311Z,1.10
2022-08-10T12:36:38.957Z,1.30
2022-08-10T12:39:13.589Z,1.20
2022-08-10T12:41:50.814Z,1.02
2022-08-10T12:44:41.028Z,1.20
2022-08-10T12:47:19.975Z,1.10
2022-08-10T12:50:29.241Z,1.27
2022-08-10T12:52:56.315Z,1.20
2022-08-10T12:55:25.515Z,1.10
2022-08-10T12:57:57.113Z,1.02
2022-08-10T13:00:35.473Z,1.08
2022-08-10T13:03:06.564Z,1.17
2022-08-10T13:06:01.934Z,1.10
2022-08-10T13:08:43.968Z,1.05
2022-08-10T13:11:26.259Z,1.10
2022-08-10T13:14:10.149Z,1.10
2022-08-10T13:16:38.689Z,1.10
2022-08-10T13:19:08.132Z,1.13
2022-08-10T13:21:39.022Z,1.25
2022-08-10T13:24:12.998Z,1.02
2022-08-10T13:27:22.748Z,1.08
2022-08-10T13:29:37.145Z,1.10
2022-08-10T13:32:10.798Z,0.90
2022-08-10T13:34:45.296Z,1.20
2022-08-10T13:37:17.228Z,0.90
2022-08-10T13:39:58.886Z,0.90
2022-08-10T13:42:32.412Z,1.02
2022-08-10T13:45:09.183Z,1.00
2022-08-10T13:47:48.880Z,0.95
2022-08-10T13:50:33.409Z,0.80
2022-08-10T13:53:13.994Z,1.00
2022-08-10T13:55:54.168Z,0.90
2022-08-10T13:58:27.312Z,1.30
2022-08-10T14:00:57.088Z,1.00
2022-08-10T14:03:26.859Z,1.17
2022-08-10T14:05:57.637Z,1.40
2022-08-10T14:08:28.486Z,0.98
2022-08-10T14:11:11.039Z,1.02
2022-08-10T14:13:44.606Z,1.27
2022-08-10T14:16:13.875Z,1.27
2022-08-10T14:18:45.018Z,1.10
2022-08-10T14:21:13.864Z,1.30
2022-08-10T14:23:52.738Z,1.05
2022-08-10T14:26:26.115Z,1.20
2022-08-10T14:28:57.274Z,1.17
2022-08-10T14:31:33.748Z,1.08
2022-08-10T14:34:05.393Z,1.10
2022-08-10T14:36:43.240Z,1.10
2022-08-10T14:39:20.652Z,1.30
2022-08-10T14:42:03.317Z,1.20
2022-08-10T14:44:44.837Z,1.30
2022-08-10T14:47:52.653Z,1.33
2022-08-10T14:50:04.123Z,1.20
2022-08-10T14:52:44.248Z,1.30
2022-08-10T14:55:19.545Z,1.25
2022-08-10T14:58:19.100Z,1.08
2022-08-10T15:00:43.087Z,1.27
2022-08-10T15:03:59.241Z,1.70
2022-08-10T15:06:18.178Z,1.30
2022-08-10T15:08:47.477Z,1.30
2022-08-10T15:12:13.122Z,1.30
2022-08-10T15:14:29.411Z,1.50
2022-08-10T15:16:56.046Z,1.08
2022-08-10T15:20:03.535Z,1.25
2022-08-10T15:22:36.341Z,1.20
2022-08-10T15:25:18.829Z,1.50
2022-08-10T15:27:55.723Z,1.27
2022-08-10T15:30:31.852Z,1.42
2022-08-10T15:33:21.427Z,1.25
2022-08-10T15:36:27.818Z,1.60
2022-08-10T15:39:00.728Z,1.35
2022-08-10T15:41:57.625Z,2.10
2022-08-10T15:44:36.697Z,1.48
2022-08-10T15:47:12.151Z,1.38
2022-08-10T15:49:49.003Z,1.92
2022-08-10T15:52:38.707Z,1.45
2022-08-10T15:55:41.685Z,1.80
2022-08-10T15:58:06.742Z,1.77
2022-08-10T16:00:39.745Z,1.95
2022-08-10T16:03:16.022Z,1.50
2022-08-10T16:06:02.565Z,1.70
2022-08-10T16:08:56.513Z,1.33
2022-08-10T16:11:37.779Z,1.20
2022-08-10T16:14:13.877Z,1.20
2022-08-10T16:16:45.051Z,1.45
2022-08-10T16:19:24.960Z,1.30
2022-08-10T16:22:00.082Z,1.10
2022-08-10T16:24:32.641Z,1.08
2022-08-10T16:27:04.891Z,1.33
2022-08-10T16:29:56.129Z,1.50
2022-08-10T16:32:23.303Z,1.33
2022-08-10T16:34:54.367Z,1.40
2022-08-10T16:37:23.381Z,1.17
2022-08-10T16:39:58.008Z,1.33
2022-08-10T16:42:34.232Z,1.35
2022-08-10T16:45:04.766Z,1.50
2022-08-10T16:47:36.785Z,1.40
2022-08-10T16:50:10.357Z,1.23
2022-08-10T16:52:45.978Z,1.15
2022-08-10T16:55:24.574Z,1.40
2022-08-10T16:58:08.013Z,1.23
2022-08-10T17:00:40.018Z,1.25
2022-08-10T17:04:05.481Z,1.25
2022-08-10T17:06:11.205Z,1.30
2022-08-10T17:08:48.742Z,1.20
2022-08-10T17:11:18.416Z,1.20
2022-08-10T17:13:46.678Z,1.02
2022-08-10T17:16:17.377Z,1.48
2022-08-10T17:18:47.992Z,1.40
2022-08-10T17:21:21.793Z,1.25
2022-08-10T17:23:53.144Z,1.00
2022-08-10T17:26:35.439Z,1.30
2022-08-10T17:29:09.087Z,1.30
2022-08-10T17:31:54.511Z,1.30
2022-08-10T17:34:30.147Z,1.10
2022-08-10T17:37:02.197Z,1.20
2022-08-10T17:39:33.703Z,1.10
2022-08-10T17:42:03.050Z,1.20
2022-08-10T17:44:36.784Z,0.98
2022-08-10T17:47:10.985Z,1.30
2022-08-10T17:49:40.020Z,1.10
2022-08-10T17:52:12.164Z,1.20
2022-08-10T17:54:44.368Z,1.30
2022-08-10T17:57:16.098Z,1.10
2022-08-10T17:59:44.152Z,1.00
2022-08-10T18:02:15.910Z,1.08
2022-08-10T18:04:51.831Z,1.10
2022-08-10T18:07:30.418Z,1.00
2022-08-10T18:09:59.812Z,1.00
2022-08-10T18:12:38.768Z,1.02
2022-08-10T18:15:12.307Z,1.08
2022-08-10T18:17:44.454Z,1.20
2022-08-10T18:20:15.329Z,1.50
2022-08-10T18:22:51.556Z,0.90
2022-08-10T18:25:23.930Z,1.20
2022-08-10T18:28:08.752Z,1.05
2022-08-10T18:30:48.665Z,1.23
2022-08-10T18:33:18.504Z,1.00
2022-08-10T18:35:47.128Z,1.10
2022-08-10T18:38:17.142Z,1.20
2022-08-10T18:40:51.946Z,1.10
2022-08-10T18:44:06.735Z,1.27
2022-08-10T18:46:17.675Z,0.95
2022-08-10T18:48:50.799Z,1.10
2022-08-10T18:51:26.090Z,1.25
2022-08-10T18:54:00.578Z,1.25
2022-08-10T18:56:51.679Z,1.10
2022-08-10T18:59:38.581Z,1.08
2022-08-10T19:02:22.255Z,0.95
2022-08-10T19:05:30.864Z,1.08
2022-08-10T19:08:31.301Z,0.90
2022-08-10T19:11:06.653Z,0.82
2022-08-10T19:13:41.143Z,1.15
2022-08-10T19:16:22.139Z,1.10
2022-08-10T19:19:01.692Z,1.00
2022-08-10T19:21:35.763Z,1.10
2022-08-10T19:24:10.856Z,1.20
2022-08-10T19:26:47.494Z,0.90
2022-08-10T19:30:11.189Z,1.10
2022-08-10T19:32:28.072Z,1.00
2022-08-10T19:35:07.033Z,1.10
2022-08-10T19:37:42.151Z,1.00
2022-08-10T19:40:21.670Z,1.25
2022-08-10T19:43:20.552Z,1.08
2022-08-10T19:46:05.547Z,1.30
2022-08-10T19:48:42.303Z,1.10
2022-08-10T19:51:15.760Z,1.20
2022-08-10T19:53:56.333Z,1.00
2022-08-10T19:56:34.589Z,1.13
2022-08-10T19:59:11.882Z,0.90
2022-08-10T20:01:54.478Z,1.23
2022-08-10T20:04:31.843Z,1.10
2022-08-10T20:07:26.255Z,1.20
2022-08-10T20:10:00.451Z,1.08
2022-08-10T20:12:40.987Z,1.10
2022-08-10T20:15:12.781Z,1.20
2022-08-10T20:17:52.523Z,1.40
2022-08-10T20:20:31.067Z,1.00
2022-08-10T20:23:08.193Z,1.20
2022-08-10T20:25:36.435Z,1.10
2022-08-10T20:28:10.926Z,1.45
2022-08-10T20:30:56.309Z,1.27
2022-08-10T20:33:28.631Z,1.08
2022-08-10T20:36:04.472Z,1.13
2022-08-10T20:38:42.483Z,1.05
2022-08-10T20:41:19.235Z,1.13
2022-08-10T20:44:00.641Z,1.30
2022-08-10T20:46:36.574Z,1.20
2022-08-10T20:49:16.675Z,1.38
2022-08-10T20:51:58.383Z,1.10
2022-08-10T20:54:32.636Z,1.27
2022-08-10T20:57:56.555Z,1.45
2022-08-10T21:00:11.084Z,1.23
2022-08-10T21:02:55.513Z,1.40
2022-08-10T21:05:31.382Z,1.27
2022-08-10T21:08:11.314Z,1.40
2022-08-10T21:10:53.102Z,1.50
2022-08-10T21:13:51.347Z,1.13
2022-08-10T21:16:35.612Z,1.30
2022-08-10T21:19:30.154Z,1.20
2022-08-10T21:22:12.013Z,1.35
2022-08-10T21:24:49.275Z,1.52
2022-08-10T21:27:36.224Z,1.35
2022-08-10T21:30:09.471Z,1.35
2022-08-10T21:32:44.442Z,1.55
2022-08-10T21:35:37.055Z,1.20
2022-08-10T21:38:12.870Z,1.33
2022-08-10T21:41:17.632Z,1.20
2022-08-10T21:44:15.589Z,1.27
2022-08-10T21:47:10.037Z,1.30
2022-08-10T21:50:07.223Z,1.40
2022-08-10T21:53:00.897Z,1.40
2022-08-10T21:56:02.016Z,1.60
2022-08-10T21:58:54.605Z,1.52
2022-08-10T22:01:51.606Z,1.77
2022-08-10T22:04:38.524Z,1.80
2022-08-10T22:07:29.479Z,1.58
2022-08-10T22:10:22.578Z,1.73
2022-08-10T22:13:12.520Z,1.65
2022-08-10T22:16:10.182Z,1.70
2022-08-10T22:19:02.910Z,1.60
2022-08-10T22:21:59.540Z,1.85
2022-08-10T22:24:59.369Z,1.80
2022-08-10T22:27:50.232Z,1.90
2022-08-10T22:30:36.933Z,1.45
2022-08-10T22:33:41.918Z,1.80
2022-08-10T22:36:43.164Z,2.03
2022-08-10T22:40:05.805Z,1.77
2022-08-10T22:42:59.472Z,1.77
2022-08-10T22:45:55.918Z,1.70
2022-08-10T22:48:41.145Z,1.92
2022-08-10T22:51:16.209Z,1.75
2022-08-10T22:54:07.070Z,1.95
2022-08-10T22:56:56.226Z,1.73
2022-08-10T22:59:30.326Z,1.80
2022-08-10T23:02:07.375Z,1.90
2022-08-10T23:04:45.360Z,1.83
2022-08-10T23:07:22.259Z,2.08
2022-08-10T23:09:57.822Z,1.88
2022-08-10T23:12:32.142Z,1.98
2022-08-10T23:15:20.846Z,1.90
2022-08-10T23:18:09.485Z,1.70
2022-08-10T23:20:38.914Z,2.00
2022-08-10T23:23:10.284Z,1.92
2022-08-10T23:25:56.693Z,1.83
2022-08-10T23:28:38.349Z,1.80
2022-08-10T23:31:17.745Z,2.08
2022-08-10T23:34:07.000Z,1.83
2022-08-10T23:36:37.953Z,1.98
2022-08-10T23:39:26.648Z,2.22
2022-08-10T23:42:04.611Z,2.05
2022-08-10T23:44:37.981Z,1.95
2022-08-10T23:47:09.386Z,2.00
2022-08-10T23:49:39.722Z,2.13
2022-08-10T23:52:13.113Z,1.92
2022-08-10T23:54:55.310Z,2.15
2022-08-10T23:57:25.769Z,1.88
2022-08-10T23:59:58.874Z,2.00
